Time;durP1;ratioP1;P1;durP2;ratioP2;P2;SDS_P1;SDS_P2;PMS_P1;PMS_P2;Temp;Humidity;BMP_temperature;BMP_pressure;BME280_temperature;BME280_humidity;BME280_pressure;Samples;Min_cycle;Max_cycle;Signal;HPM_P1;HPM_P2
2022/03/28 00:00:09;;;;;;;14.23;10.60;;;15.30;54.10;;;;;;5118668;27;20138;-61
2022/03/28 00:02:37;;;;;;;11.93;10.13;;;15.30;54.00;;;;;;5101140;27;20107;-60
2022/03/28 00:05:03;;;;;;;13.55;10.60;;;15.30;54.10;;;;;;5098996;27;20047;-60
2022/03/28 00:07:28;;;;;;;15.95;10.55;;;15.20;54.10;;;;;;5121514;27;20071;-61
2022/03/28 00:09:54;;;;;;;13.55;10.40;;;15.20;54.20;;;;;;5117613;27;20467;-60
2022/03/28 00:12:19;;;;;;;13.52;10.73;;;15.20;54.20;;;;;;5082637;27;20494;-61
2022/03/28 00:14:45;;;;;;;13.98;10.50;;;15.20;54.20;;;;;;5081584;27;20081;-61
2022/03/28 00:17:10;;;;;;;17.90;10.93;;;15.20;54.30;;;;;;5110330;27;20063;-61
2022/03/28 00:19:36;;;;;;;14.98;10.82;;;15.10;54.30;;;;;;5119642;27;20521;-60
2022/03/28 00:22:01;;;;;;;11.30;10.10;;;15.10;54.40;;;;;;5122027;27;20043;-60
2022/03/28 00:24:27;;;;;;;16.83;11.15;;;15.10;54.40;;;;;;5101506;27;20059;-61
2022/03/28 00:26:54;;;;;;;15.15;10.23;;;15.10;54.50;;;;;;5119472;27;20528;-61
2022/03/28 00:29:21;;;;;;;13.43;10.77;;;15.00;55.10;;;;;;5118412;27;20381;-61
2022/03/28 00:31:47;;;;;;;14.20;11.23;;;15.00;54.50;;;;;;5102829;27;20135;-61
2022/03/28 00:34:14;;;;;;;15.45;11.70;;;15.00;54.50;;;;;;5101219;27;20102;-60
2022/03/28 00:36:39;;;;;;;20.90;13.07;;;15.00;54.60;;;;;;5117096;27;20126;-61
2022/03/28 00:39:05;;;;;;;15.57;12.48;;;15.00;54.70;;;;;;5114557;27;20122;-60
2022/03/28 00:41:30;;;;;;;17.13;12.48;;;14.90;54.70;;;;;;5099863;27;20498;-61
2022/03/28 00:43:57;;;;;;;16.45;12.02;;;14.90;54.80;;;;;;5120249;27;20875;-61
2022/03/28 00:46:22;;;;;;;14.23;11.90;;;14.90;54.80;;;;;;5084800;27;20027;-60
2022/03/28 00:48:48;;;;;;;14.98;11.65;;;14.80;54.80;;;;;;5106700;27;20046;-60
2022/03/28 00:51:15;;;;;;;18.25;11.85;;;14.80;54.90;;;;;;5107952;27;20034;-60
2022/03/28 00:53:40;;;;;;;15.40;12.13;;;14.80;54.90;;;;;;5095028;27;20039;-60
2022/03/28 00:56:07;;;;;;;14.38;12.00;;;14.80;54.90;;;;;;5082010;28;20035;-60
2022/03/28 00:58:33;;;;;;;13.98;11.10;;;14.70;54.90;;;;;;5090748;28;20034;-60
2022/03/28 01:00:59;;;;;;;16.85;11.57;;;14.70;55.00;;;;;;5111306;27;20151;-61
2022/03/28 01:03:24;;;;;;;14.05;11.18;;;14.70;55.00;;;;;;5105851;27;20452;-61
2022/03/28 01:05:50;;;;;;;14.13;11.70;;;14.70;55.00;;;;;;5106703;27;20023;-61
2022/03/28 01:08:15;;;;;;;13.13;11.65;;;14.60;55.10;;;;;;5111681;27;21097;-60
2022/03/28 01:10:42;;;;;;;15.15;11.80;;;14.60;55.20;;;;;;5094095;28;20379;-61
2022/03/28 01:13:08;;;;;;;13.50;11.90;;;14.60;55.10;;;;;;5084814;27;20023;-60
2022/03/28 01:15:33;;;;;;;13.45;11.57;;;14.60;55.20;;;;;;5101990;27;20046;-60
2022/03/28 01:18:09;;;;;;;14.88;11.85;;;14.50;55.20;;;;;;5120195;27;20035;-61
2022/03/28 01:20:36;;;;;;;;;;;14.50;55.30;;;;;;5087795;28;20020;-60
2022/03/28 01:23:01;;;;;;;12.55;10.52;;;14.50;55.30;;;;;;5117742;27;19912;-61
2022/03/28 01:25:29;;;;;;;14.93;11.68;;;14.50;55.40;;;;;;5103418;27;20042;-60
2022/03/28 01:27:55;;;;;;;12.98;11.07;;;14.40;55.40;;;;;;5113943;28;20030;-61
2022/03/28 01:30:21;;;;;;;13.30;11.38;;;14.40;55.50;;;;;;5085026;27;20031;-61
2022/03/28 01:32:50;;;;;;;15.05;12.32;;;14.40;55.60;;;;;;5102012;28;20051;-61
2022/03/28 01:35:36;;;;;;;15.43;12.45;;;14.40;55.70;;;;;;5085131;28;20395;-60
2022/03/28 01:38:03;;;;;;;14.43;12.38;;;14.40;55.70;;;;;;5086723;28;20529;-60
2022/03/28 01:40:29;;;;;;;16.65;12.52;;;14.30;55.70;;;;;;5100042;27;20039;-60
2022/03/28 01:42:55;;;;;;;15.50;11.68;;;14.30;55.80;;;;;;5100635;28;20039;-61
2022/03/28 01:45:20;;;;;;;17.65;11.93;;;14.20;55.80;;;;;;5085166;28;20497;-60
2022/03/28 01:47:46;;;;;;;13.60;12.13;;;14.20;55.80;;;;;;5116103;27;20558;-60
2022/03/28 01:50:12;;;;;;;15.95;12.43;;;14.20;56.00;;;;;;5096377;27;20488;-61
2022/03/28 01:52:38;;;;;;;13.23;11.63;;;14.20;56.60;;;;;;5120840;27;20102;-60
2022/03/28 01:55:04;;;;;;;14.52;11.27;;;14.10;56.10;;;;;;5118924;28;20031;-60
2022/03/28 01:57:30;;;;;;;15.70;11.77;;;14.10;56.10;;;;;;5081200;28;20055;-61
2022/03/28 01:59:55;;;;;;;15.07;11.60;;;14.10;56.20;;;;;;5104068;28;20032;-60
2022/03/28 02:02:21;;;;;;;14.15;11.35;;;14.10;56.10;;;;;;5108071;28;20027;-60
2022/03/28 02:04:47;;;;;;;15.35;11.98;;;13.90;56.10;;;;;;5105847;28;20055;-60
2022/03/28 02:07:12;;;;;;;15.70;12.32;;;14.10;56.20;;;;;;5109368;27;20486;-61
2022/03/28 02:09:38;;;;;;;14.30;11.98;;;14.00;56.30;;;;;;5102557;28;20056;-61
2022/03/28 02:12:04;;;;;;;15.95;12.10;;;14.00;56.30;;;;;;5083262;28;20047;-59
2022/03/28 02:14:29;;;;;;;13.35;11.35;;;14.00;56.30;;;;;;5082377;27;20107;-61
2022/03/28 02:16:55;;;;;;;12.57;11.23;;;13.90;56.30;;;;;;5107028;27;20747;-61
2022/03/28 02:19:20;;;;;;;14.80;11.77;;;13.90;56.30;;;;;;5121082;27;20037;-60
2022/03/28 02:21:46;;;;;;;14.15;11.57;;;13.90;56.40;;;;;;5104268;27;20093;-60
2022/03/28 02:24:11;;;;;;;13.55;11.32;;;13.90;56.40;;;;;;5114616;27;20036;-60
2022/03/28 02:26:37;;;;;;;13.32;10.85;;;13.90;56.50;;;;;;5082922;28;20040;-60
2022/03/28 02:29:03;;;;;;;13.95;11.32;;;13.90;56.50;;;;;;5121707;27;20103;-61
2022/03/28 02:31:28;;;;;;;15.38;11.45;;;13.80;56.50;;;;;;5101763;27;20566;-60
2022/03/28 02:33:54;;;;;;;12.55;11.25;;;13.90;56.60;;;;;;5103216;27;20377;-60
2022/03/28 02:36:19;;;;;;;16.20;13.07;;;13.80;56.60;;;;;;5101599;27;20084;-60
2022/03/28 02:38:45;;;;;;;19.88;13.20;;;13.80;56.60;;;;;;5106987;27;21024;-60
2022/03/28 02:41:10;;;;;;;18.35;12.88;;;13.80;56.60;;;;;;5103219;27;20427;-60
2022/03/28 02:43:36;;;;;;;17.60;13.73;;;13.80;56.60;;;;;;5102416;28;20087;-60
2022/03/28 02:46:01;;;;;;;18.67;12.82;;;13.70;56.70;;;;;;5102112;27;20046;-60
2022/03/28 02:48:27;;;;;;;18.63;13.15;;;13.70;56.70;;;;;;5096554;27;20052;-61
2022/03/28 02:50:52;;;;;;;17.40;12.63;;;13.60;57.30;;;;;;5103635;28;20035;-60
2022/03/28 02:53:18;;;;;;;22.23;11.75;;;13.70;56.80;;;;;;5101522;28;20104;-61
2022/03/28 02:55:43;;;;;;;20.33;11.95;;;13.60;56.90;;;;;;5083851;28;20756;-60
2022/03/28 02:58:09;;;;;;;15.45;12.52;;;13.60;57.00;;;;;;5068014;28;20043;-60
2022/03/28 03:00:35;;;;;;;16.20;12.60;;;13.70;57.10;;;;;;5102559;28;20027;-60
2022/03/28 03:03:00;;;;;;;15.60;12.73;;;13.60;57.10;;;;;;5101524;27;20371;-61
2022/03/28 03:05:26;;;;;;;18.10;11.88;;;13.60;57.20;;;;;;5067105;28;20035;-61
2022/03/28 03:07:52;;;;;;;14.18;11.80;;;13.60;57.10;;;;;;5082099;28;20050;-61
2022/03/28 03:10:17;;;;;;;14.65;12.15;;;13.60;57.10;;;;;;5083987;28;20026;-61
2022/03/28 03:12:43;;;;;;;15.23;11.85;;;13.60;57.10;;;;;;5104714;27;20027;-61
2022/03/28 03:15:08;;;;;;;15.43;11.77;;;13.50;57.00;;;;;;5084405;28;20035;-60
2022/03/28 03:17:35;;;;;;;13.50;11.52;;;13.50;57.00;;;;;;5102652;27;20055;-61
2022/03/28 03:20:01;;;;;;;16.65;12.20;;;13.50;57.10;;;;;;5087877;28;20023;-60
2022/03/28 03:22:26;;;;;;;13.57;11.55;;;13.50;57.20;;;;;;5082467;28;20726;-60
2022/03/28 03:24:52;;;;;;;16.10;10.75;;;13.50;57.20;;;;;;5103131;27;20070;-60
2022/03/28 03:27:17;;;;;;;14.57;12.00;;;13.50;57.30;;;;;;5107684;27;20484;-60
2022/03/28 03:29:43;;;;;;;13.10;10.77;;;13.40;57.30;;;;;;5105805;27;20126;-60
2022/03/28 03:32:09;;;;;;;12.20;10.90;;;13.40;57.50;;;;;;5113132;27;20063;-60
2022/03/28 03:34:34;;;;;;;17.55;12.00;;;13.40;57.60;;;;;;5100670;27;20105;-61
2022/03/28 03:37:00;;;;;;;16.52;11.07;;;13.40;57.70;;;;;;5096026;27;20115;-60
2022/03/28 03:39:26;;;;;;;15.18;11.63;;;13.40;57.80;;;;;;5102010;27;20084;-60
2022/03/28 03:41:52;;;;;;;16.67;12.43;;;13.40;58.00;;;;;;5076177;27;20054;-60
2022/03/28 03:44:18;;;;;;;16.60;12.77;;;13.30;57.90;;;;;;5109752;27;20106;-60
2022/03/28 03:46:43;;;;;;;19.85;12.75;;;13.30;58.00;;;;;;5074876;28;20035;-60
2022/03/28 03:49:09;;;;;;;17.90;12.00;;;13.30;58.10;;;;;;5103701;27;20039;-61
2022/03/28 03:51:35;;;;;;;13.43;11.57;;;13.30;58.10;;;;;;5095230;27;20045;-60
2022/03/28 03:54:01;;;;;;;16.77;13.02;;;13.30;58.10;;;;;;5114198;27;20748;-61
2022/03/28 03:56:28;;;;;;;18.77;11.95;;;13.20;58.00;;;;;;5110190;27;20042;-60
2022/03/28 03:58:54;;;;;;;13.85;12.02;;;13.20;58.00;;;;;;5111642;27;20039;-61
2022/03/28 04:01:20;;;;;;;17.50;12.10;;;13.20;58.00;;;;;;5114189;27;20039;-60
2022/03/28 04:03:45;;;;;;;16.30;11.90;;;13.20;58.00;;;;;;5115913;27;20099;-60
2022/03/28 04:06:11;;;;;;;12.77;11.45;;;13.20;58.10;;;;;;5112280;27;20042;-61
2022/03/28 04:08:37;;;;;;;17.42;12.13;;;13.20;58.10;;;;;;5113346;27;20068;-61
2022/03/28 04:11:03;;;;;;;15.05;12.13;;;13.10;58.10;;;;;;5091228;27;20106;-60
2022/03/28 04:13:29;;;;;;;15.75;12.23;;;13.10;58.00;;;;;;5101603;27;20027;-61
2022/03/28 04:15:54;;;;;;;15.60;11.57;;;13.10;58.10;;;;;;5115181;27;20110;-60
2022/03/28 04:18:20;;;;;;;16.48;11.57;;;13.10;58.10;;;;;;5114908;27;20032;-60
2022/03/28 04:20:46;;;;;;;38.65;13.15;;;13.00;58.20;;;;;;5124121;27;20233;-60
2022/03/28 04:23:11;;;;;;;25.85;12.73;;;13.10;58.20;;;;;;5108178;27;20039;-61
2022/03/28 04:25:37;;;;;;;28.35;13.43;;;13.00;58.20;;;;;;5112759;27;20022;-61
2022/03/28 04:28:05;;;;;;;34.20;14.00;;;13.00;58.20;;;;;;5112783;27;20098;-61
2022/03/28 04:30:31;;;;;;;29.33;13.43;;;13.00;58.20;;;;;;5102771;27;20109;-60
2022/03/28 04:32:56;;;;;;;27.73;12.45;;;13.00;58.20;;;;;;5109362;27;20036;-60
2022/03/28 04:35:22;;;;;;;29.67;13.55;;;13.00;58.30;;;;;;5088575;27;20282;-60
2022/03/28 04:37:47;;;;;;;26.40;11.73;;;13.00;58.30;;;;;;5111604;27;20069;-60
2022/03/28 04:40:15;;;;;;;28.52;13.18;;;12.90;58.40;;;;;;5111831;27;20043;-60
2022/03/28 04:42:40;;;;;;;24.88;12.43;;;12.90;58.40;;;;;;5100194;27;20133;-60
2022/03/28 04:45:07;;;;;;;27.13;12.80;;;12.90;58.40;;;;;;5102532;27;20114;-61
2022/03/28 04:47:33;;;;;;;26.63;12.45;;;12.90;58.40;;;;;;5103275;27;20035;-60
2022/03/28 04:49:58;;;;;;;30.25;11.80;;;12.90;58.50;;;;;;5082954;28;20032;-61
2022/03/28 04:52:24;;;;;;;30.67;12.73;;;12.80;58.40;;;;;;5096610;27;20517;-60
2022/03/28 04:54:49;;;;;;;26.05;12.43;;;12.80;58.50;;;;;;5113637;27;20092;-60
2022/03/28 04:57:15;;;;;;;28.10;12.68;;;12.80;58.60;;;;;;5116948;27;20023;-60
2022/03/28 04:59:40;;;;;;;32.67;12.18;;;12.80;58.60;;;;;;5102675;27;20145;-60
2022/03/28 05:02:06;;;;;;;26.38;12.50;;;12.70;58.60;;;;;;5115957;27;20062;-60
2022/03/28 05:04:32;;;;;;;24.25;12.93;;;12.70;58.60;;;;;;5096329;28;20592;-60
2022/03/28 05:06:58;;;;;;;31.90;12.77;;;12.70;58.70;;;;;;5103311;28;20043;-60
2022/03/28 05:09:23;;;;;;;23.85;12.85;;;12.70;58.70;;;;;;5089277;28;20142;-61
2022/03/28 05:11:49;;;;;;;28.67;11.90;;;12.70;58.80;;;;;;5111015;27;20039;-60
2022/03/28 05:14:14;;;;;;;23.10;12.65;;;12.70;58.80;;;;;;5112017;27;20044;-60
2022/03/28 05:16:40;;;;;;;29.73;12.77;;;12.70;58.90;;;;;;5111362;27;20020;-60
2022/03/28 05:19:05;;;;;;;27.20;11.88;;;12.70;59.00;;;;;;5105993;27;20028;-60
2022/03/28 05:21:31;;;;;;;26.52;12.27;;;12.70;59.00;;;;;;5119746;27;20546;-61
2022/03/28 05:23:56;;;;;;;24.77;12.02;;;12.60;59.00;;;;;;5118322;27;20050;-60
2022/03/28 05:26:22;;;;;;;23.55;12.18;;;12.60;59.00;;;;;;5111418;27;20031;-60
2022/03/28 05:28:47;;;;;;;28.25;12.05;;;12.60;59.20;;;;;;5087894;28;20040;-61
2022/03/28 05:31:13;;;;;;;27.30;11.70;;;12.50;59.30;;;;;;5077330;28;20079;-60
2022/03/28 05:33:38;;;;;;;26.45;11.65;;;12.60;59.40;;;;;;5082518;28;20126;-60
2022/03/28 05:36:04;;;;;;;20.13;11.63;;;12.50;60.00;;;;;;5096665;28;20024;-60
2022/03/28 05:38:30;;;;;;;22.05;12.45;;;12.50;59.40;;;;;;5095471;28;20042;-60
2022/03/28 05:40:57;;;;;;;22.25;11.68;;;12.50;59.50;;;;;;5106490;28;20120;-61
2022/03/28 05:43:23;;;;;;;20.63;12.10;;;12.50;59.50;;;;;;5097509;28;20042;-61
2022/03/28 05:45:50;;;;;;;21.73;11.43;;;12.50;59.50;;;;;;5083908;28;20054;-60
2022/03/28 05:48:15;;;;;;;19.73;11.75;;;12.50;59.50;;;;;;5117961;28;20061;-60
2022/03/28 05:50:41;;;;;;;23.63;11.63;;;12.50;59.50;;;;;;5094527;27;20031;-60
2022/03/28 05:53:06;;;;;;;25.55;11.48;;;12.50;59.60;;;;;;5092200;27;20040;-61
2022/03/28 05:55:32;;;;;;;16.35;10.85;;;12.50;59.60;;;;;;5114834;27;20028;-61
2022/03/28 05:57:57;;;;;;;19.48;11.07;;;12.40;59.60;;;;;;5106648;27;20626;-60
2022/03/28 06:00:23;;;;;;;21.52;11.13;;;12.60;59.70;;;;;;5113893;27;20435;-60
2022/03/28 06:02:49;;;;;;;18.20;11.05;;;12.40;59.60;;;;;;5077316;28;20024;-60
2022/03/28 06:05:14;;;;;;;20.92;10.88;;;12.40;59.70;;;;;;5107489;27;20160;-60
2022/03/28 06:07:40;;;;;;;25.30;12.15;;;12.40;59.60;;;;;;5082921;28;20027;-60
2022/03/28 06:10:05;;;;;;;15.93;11.13;;;12.30;59.70;;;;;;5118357;27;20394;-60
2022/03/28 06:12:31;;;;;;;20.75;10.98;;;12.40;59.80;;;;;;5102768;27;20043;-60
2022/03/28 06:14:57;;;;;;;24.27;10.98;;;12.30;59.60;;;;;;5088583;27;20478;-61
2022/03/28 06:17:22;;;;;;;21.45;10.52;;;12.30;59.70;;;;;;5102245;27;20097;-60
2022/03/28 06:19:48;;;;;;;21.40;11.70;;;12.30;60.40;;;;;;5102034;27;20113;-60
2022/03/28 06:22:14;;;;;;;22.27;11.40;;;12.30;59.90;;;;;;5115819;27;20524;-60
2022/03/28 06:24:39;;;;;;;28.73;11.88;;;12.30;59.90;;;;;;5096803;27;20036;-61
2022/03/28 06:27:05;;;;;;;18.88;11.57;;;12.30;59.90;;;;;;5111886;27;20031;-61
2022/03/28 06:29:30;;;;;;;25.13;11.68;;;12.30;60.00;;;;;;5121161;27;20035;-60
2022/03/28 06:31:56;;;;;;;16.13;11.80;;;12.30;60.00;;;;;;5117583;27;20561;-60
2022/03/28 06:34:21;;;;;;;20.23;11.38;;;12.30;60.10;;;;;;5081098;27;20539;-60
2022/03/28 06:36:47;;;;;;;16.45;11.68;;;12.30;60.10;;;;;;5090013;27;20043;-60
2022/03/28 06:39:13;;;;;;;19.33;11.68;;;12.20;60.10;;;;;;5116608;27;20031;-62
2022/03/28 06:41:39;;;;;;;16.67;10.95;;;12.20;60.10;;;;;;5104268;27;20026;-59
2022/03/28 06:44:07;;;;;;;21.33;11.93;;;12.20;60.30;;;;;;5112844;27;20027;-63
2022/03/28 06:46:33;;;;;;;17.98;11.40;;;12.20;60.30;;;;;;5084878;27;20025;-64
2022/03/28 06:48:58;;;;;;;14.93;10.43;;;12.20;60.40;;;;;;5111219;27;20027;-63
2022/03/28 06:51:24;;;;;;;19.75;11.50;;;12.20;60.40;;;;;;5101393;28;20012;-61
2022/03/28 06:53:50;;;;;;;17.60;11.65;;;12.20;60.50;;;;;;5103533;27;20488;-61
2022/03/28 06:56:16;;;;;;;18.58;11.82;;;12.20;60.50;;;;;;5102714;27;20028;-60
2022/03/28 06:58:42;;;;;;;24.15;12.43;;;12.20;60.70;;;;;;5115704;27;20027;-60
2022/03/28 07:01:08;;;;;;;15.73;12.02;;;12.20;60.80;;;;;;5086409;27;20066;-60
2022/03/28 07:03:34;;;;;;;22.58;11.65;;;12.20;60.80;;;;;;5089312;27;20031;-60
2022/03/28 07:06:01;;;;;;;19.60;11.48;;;12.20;60.80;;;;;;5120815;27;20494;-60
2022/03/28 07:08:26;;;;;;;17.67;12.05;;;12.20;60.80;;;;;;5084951;27;20123;-60
2022/03/28 07:10:53;;;;;;;22.55;11.90;;;12.20;60.70;;;;;;5082799;28;20231;-60
2022/03/28 07:13:19;;;;;;;20.60;12.25;;;12.20;60.80;;;;;;5109252;27;20104;-60
2022/03/28 07:15:44;;;;;;;22.23;13.05;;;12.20;60.90;;;;;;5090338;27;20114;-61
2022/03/28 07:18:10;;;;;;;18.88;11.85;;;12.30;61.00;;;;;;5094606;27;20114;-60
2022/03/28 07:20:35;;;;;;;24.48;12.10;;;12.20;60.90;;;;;;5105679;27;20062;-60
2022/03/28 07:23:02;;;;;;;18.13;11.80;;;12.20;61.00;;;;;;5087295;27;20039;-61
2022/03/28 07:25:28;;;;;;;26.80;13.05;;;12.20;61.00;;;;;;5093577;27;20107;-60
2022/03/28 07:27:53;;;;;;;18.58;11.35;;;12.20;61.00;;;;;;5096172;27;20044;-60
2022/03/28 07:30:19;;;;;;;21.23;12.55;;;12.20;61.10;;;;;;5082456;28;20104;-61
2022/03/28 07:32:45;;;;;;;20.98;12.32;;;12.20;61.00;;;;;;5092531;27;20439;-60
2022/03/28 07:35:11;;;;;;;46.60;13.65;;;12.20;61.10;;;;;;5105226;27;20135;-60
2022/03/28 07:37:38;;;;;;;26.05;12.93;;;12.20;61.20;;;;;;5108491;27;20047;-60
2022/03/28 07:40:05;;;;;;;27.17;12.82;;;12.20;61.20;;;;;;5105260;27;20062;-60
2022/03/28 07:42:32;;;;;;;28.70;12.43;;;12.20;61.10;;;;;;5099859;27;20618;-60
2022/03/28 07:44:58;;;;;;;26.77;12.52;;;12.20;61.10;;;;;;5117160;27;20020;-60
2022/03/28 07:47:25;;;;;;;36.75;13.85;;;12.20;61.10;;;;;;5107834;27;20034;-60
2022/03/28 07:49:53;;;;;;;38.50;13.95;;;12.20;61.10;;;;;;5083896;27;20103;-60
2022/03/28 07:52:19;;;;;;;38.10;14.82;;;12.20;61.00;;;;;;5096923;27;20030;-60
2022/03/28 07:54:45;;;;;;;33.17;14.10;;;12.20;61.20;;;;;;5095329;27;20027;-60
2022/03/28 07:57:11;;;;;;;46.63;13.23;;;12.20;61.30;;;;;;5111812;27;20073;-60
2022/03/28 07:59:38;;;;;;;44.53;15.23;;;12.20;62.00;;;;;;5081327;27;20119;-61
2022/03/28 08:02:04;;;;;;;39.25;14.70;;;12.20;61.40;;;;;;5072765;28;20122;-60
2022/03/28 08:04:31;;;;;;;26.35;14.48;;;12.20;61.40;;;;;;5083343;28;20712;-60
2022/03/28 08:06:57;;;;;;;36.00;13.98;;;12.20;61.40;;;;;;5083900;27;21841;-61
2022/03/28 08:09:22;;;;;;;37.22;14.35;;;12.20;61.50;;;;;;5085661;28;20024;-60
2022/03/28 08:11:48;;;;;;;36.00;14.45;;;12.20;61.40;;;;;;5099141;27;20028;-61
2022/03/28 08:14:13;;;;;;;28.08;13.15;;;12.20;61.50;;;;;;5095893;27;20071;-60
2022/03/28 08:16:39;;;;;;;40.50;14.38;;;12.20;61.60;;;;;;5103737;27;20422;-60
2022/03/28 08:19:04;;;;;;;39.33;14.55;;;12.30;62.00;;;;;;5076169;27;20779;-60
2022/03/28 08:21:30;;;;;;;31.98;13.88;;;12.30;61.90;;;;;;5080372;27;20238;-60
2022/03/28 08:23:55;;;;;;;31.55;13.27;;;12.30;61.80;;;;;;5082033;27;20683;-60
2022/03/28 08:26:21;;;;;;;39.40;14.23;;;12.30;61.80;;;;;;5096190;27;20043;-59
2022/03/28 08:28:47;;;;;;;33.70;14.15;;;12.40;61.80;;;;;;5084299;28;20023;-60
2022/03/28 08:31:12;;;;;;;43.75;14.95;;;12.30;61.90;;;;;;5084424;27;21399;-59
2022/03/28 08:33:38;;;;;;;39.53;15.32;;;12.30;62.30;;;;;;5075176;27;20028;-60
2022/03/28 08:36:04;;;;;;;33.20;13.43;;;12.40;62.70;;;;;;5096363;27;20028;-60
2022/03/28 08:38:31;;;;;;;45.28;14.50;;;12.30;62.00;;;;;;5102973;27;20542;-61
2022/03/28 08:40:57;;;;;;;43.47;14.60;;;12.40;62.50;;;;;;5096620;27;20020;-59
2022/03/28 08:43:23;;;;;;;49.50;14.25;;;12.40;62.80;;;;;;5047599;27;20026;-61
2022/03/28 08:45:49;;;;;;;44.03;14.55;;;12.40;62.20;;;;;;5093555;27;20051;-60
2022/03/28 08:48:14;;;;;;;37.13;13.75;;;12.50;62.20;;;;;;5062390;27;20101;-60
2022/03/28 08:50:49;;;;;;;38.60;15.23;;;12.50;62.30;;;;;;5080850;27;20138;-60
2022/03/28 08:53:15;;;;;;;37.97;14.60;;;12.50;62.30;;;;;;5092246;27;20035;-60
2022/03/28 08:55:41;;;;;;;38.05;14.48;;;12.50;62.30;;;;;;5077618;27;20050;-60
2022/03/28 08:58:07;;;;;;;46.17;14.77;;;12.50;62.70;;;;;;5110075;27;20402;-60
2022/03/28 09:00:33;;;;;;;41.42;14.30;;;12.60;62.70;;;;;;5074536;28;20039;-61
2022/03/28 09:02:59;;;;;;;57.15;16.02;;;12.60;62.90;;;;;;5097185;28;20425;-60
2022/03/28 09:05:29;;;;;;;63.17;16.73;;;12.60;63.30;;;;;;5063828;28;20372;-60
2022/03/28 09:07:58;;;;;;;58.75;17.13;;;12.60;63.60;;;;;;5069513;28;20119;-60
2022/03/28 09:10:24;;;;;;;59.22;16.10;;;12.60;63.70;;;;;;5080012;28;20520;-61
2022/03/28 09:13:00;;;;;;;58.70;16.83;;;12.70;63.80;;;;;;5093983;28;20030;-60
2022/03/28 09:15:44;;;;;;;64.53;17.48;;;12.70;64.00;;;;;;5110837;27;20026;-60
2022/03/28 09:18:32;;;;;;;64.72;16.50;;;12.70;63.80;;;;;;5089574;28;20084;-60
2022/03/28 09:21:05;;;;;;;64.45;18.98;;;12.80;64.00;;;;;;5095302;27;20019;-60
2022/03/28 09:23:35;;;;;;;76.90;18.23;;;12.80;64.20;;;;;;5079358;28;20031;-60
2022/03/28 09:26:10;;;;;;;90.30;19.75;;;12.80;64.40;;;;;;5082400;28;20441;-60
2022/03/28 09:28:39;;;;;;;80.55;18.65;;;12.90;64.40;;;;;;5088261;28;20131;-60
2022/03/28 09:31:18;;;;;;;68.30;16.33;;;12.90;64.40;;;;;;5093100;28;20402;-60
2022/03/28 09:33:57;;;;;;;80.28;17.17;;;12.90;63.70;;;;;;5106288;27;20035;-60
2022/03/28 09:36:48;;;;;;;71.22;15.57;;;12.90;63.60;;;;;;5090669;28;20151;-60
2022/03/28 09:39:30;;;;;;;69.40;16.17;;;12.90;63.50;;;;;;5085556;28;20032;-60
2022/03/28 09:42:05;;;;;;;69.88;17.05;;;12.90;63.50;;;;;;5111363;27;20390;-60
2022/03/28 09:44:34;;;;;;;77.07;18.38;;;13.00;63.50;;;;;;5091694;27;20446;-61
2022/03/28 09:47:04;;;;;;;82.22;17.95;;;13.00;63.60;;;;;;5083888;28;20182;-60
2022/03/28 09:49:31;;;;;;;83.65;17.55;;;13.00;63.50;;;;;;5095906;28;20055;-60
2022/03/28 09:52:08;;;;;;;81.07;18.27;;;13.10;63.30;;;;;;5081229;28;20027;-60
2022/03/28 09:54:44;;;;;;;68.50;17.00;;;13.10;63.30;;;;;;5096873;28;20043;-60
2022/03/28 09:57:10;;;;;;;71.28;17.52;;;13.10;63.20;;;;;;5104003;28;20020;-60
2022/03/28 09:59:39;;;;;;;69.05;15.93;;;13.20;63.10;;;;;;5089246;28;20118;-60
2022/03/28 10:02:15;;;;;;;66.38;16.70;;;13.20;63.00;;;;;;5111487;28;20514;-61
2022/03/28 10:04:41;;;;;;;54.72;14.70;;;13.20;62.80;;;;;;5082101;28;20509;-61
2022/03/28 10:07:06;;;;;;;68.90;16.83;;;13.20;62.70;;;;;;5077191;28;20031;-60
2022/03/28 10:09:32;;;;;;;73.10;16.25;;;13.20;62.50;;;;;;5078184;28;20028;-61
2022/03/28 10:11:58;;;;;;;68.78;17.27;;;13.30;62.30;;;;;;5085418;28;20023;-61
2022/03/28 10:14:23;;;;;;;58.65;15.13;;;13.30;62.30;;;;;;5074968;28;20028;-60
2022/03/28 10:16:49;;;;;;;48.83;15.63;;;13.20;62.10;;;;;;5076697;28;20663;-61
2022/03/28 10:19:15;;;;;;;55.60;16.48;;;13.30;62.00;;;;;;5088010;28;20019;-60
2022/03/28 10:21:40;;;;;;;72.78;16.65;;;13.40;61.90;;;;;;5092221;28;20056;-60
2022/03/28 10:24:35;;;;;;;66.10;16.42;;;13.40;61.80;;;;;;5088784;28;20137;-60
2022/03/28 10:27:02;;;;;;;99.28;18.17;;;13.50;61.70;;;;;;5068867;28;20035;-61
2022/03/28 10:29:38;;;;;;;57.75;17.52;;;13.50;61.60;;;;;;5080124;27;21816;-60
2022/03/28 10:32:17;;;;;;;63.33;16.63;;;13.50;61.60;;;;;;5093536;28;20038;-60
2022/03/28 10:34:52;;;;;;;79.57;18.33;;;13.60;61.30;;;;;;5114315;27;20020;-61
2022/03/28 10:37:36;;;;;;;48.80;15.57;;;13.60;61.10;;;;;;5075904;27;20035;-60
2022/03/28 10:40:33;;;;;;;47.25;17.02;;;13.70;61.20;;;;;;5112729;27;20035;-60
2022/03/28 10:43:12;;;;;;;54.83;15.82;;;13.70;61.10;;;;;;5097649;27;20043;-60
2022/03/28 10:45:38;;;;;;;65.20;15.88;;;13.80;61.10;;;;;;5101331;27;20099;-60
2022/03/28 10:48:05;;;;;;;61.78;16.17;;;13.80;60.90;;;;;;5117517;27;20053;-60
2022/03/28 10:50:33;;;;;;;56.15;16.08;;;13.90;60.70;;;;;;5098660;27;20063;-60
2022/03/28 10:53:39;;;;;;;55.47;16.50;;;13.90;60.70;;;;;;5097947;27;20335;-60
2022/03/28 10:56:25;;;;;;;61.50;17.58;;;14.00;60.50;;;;;;5077486;27;20475;-60
2022/03/28 10:58:55;;;;;;;68.55;18.23;;;14.00;60.40;;;;;;5102086;27;20143;-60
2022/03/28 11:01:29;;;;;;;47.00;15.05;;;13.90;60.60;;;;;;5075295;27;21483;-61
2022/03/28 11:04:16;;;;;;;57.75;16.23;;;14.10;60.70;;;;;;5117451;27;20054;-60
2022/03/28 11:07:00;;;;;;;50.90;16.05;;;14.20;60.20;;;;;;5117182;27;20534;-60
2022/03/28 11:10:00;;;;;;;80.70;18.85;;;14.20;59.60;;;;;;5082581;27;20027;-60
2022/03/28 11:12:38;;;;;;;59.67;16.17;;;14.30;59.60;;;;;;5113247;27;20849;-60
2022/03/28 11:15:20;;;;;;;94.65;20.27;;;14.30;60.00;;;;;;5097096;27;20465;-60
2022/03/28 11:18:09;;;;;;;78.50;17.25;;;14.40;59.40;;;;;;5081843;27;20030;-61
2022/03/28 11:20:48;;;;;;;90.65;17.48;;;14.50;59.40;;;;;;5092317;27;20142;-60
2022/03/28 11:23:15;;;;;;;62.95;17.02;;;14.50;59.40;;;;;;5097236;27;20043;-60
2022/03/28 11:25:51;;;;;;;74.05;17.73;;;14.60;59.20;;;;;;5095849;27;20108;-60
2022/03/28 11:28:25;;;;;;;45.08;16.00;;;14.60;58.70;;;;;;5116855;27;20082;-60
2022/03/28 11:31:06;;;;;;;100.90;19.23;;;14.70;58.50;;;;;;5089497;27;20172;-60
2022/03/28 11:33:38;;;;;;;66.32;16.27;;;14.70;58.40;;;;;;5094808;27;20035;-60
2022/03/28 11:36:08;;;;;;;56.58;17.00;;;14.80;58.50;;;;;;5100608;27;20033;-61
2022/03/28 11:38:38;;;;;;;50.15;16.90;;;14.80;58.10;;;;;;5080428;27;20498;-60
2022/03/28 11:41:04;;;;;;;46.10;15.25;;;14.90;57.60;;;;;;5097969;27;20032;-61
2022/03/28 11:43:32;;;;;;;50.67;15.45;;;15.00;57.30;;;;;;5076851;27;20035;-60
2022/03/28 11:45:58;;;;;;;60.65;15.57;;;15.10;57.10;;;;;;5098357;27;20043;-60
2022/03/28 11:48:23;;;;;;;53.78;15.27;;;15.10;56.90;;;;;;5074923;27;20028;-60
2022/03/28 11:50:49;;;;;;;48.45;15.15;;;15.20;56.70;;;;;;5076602;27;20056;-60
2022/03/28 11:53:15;;;;;;;52.00;15.05;;;15.30;56.50;;;;;;5096360;27;20043;-60
2022/03/28 11:55:49;;;;;;;63.67;15.68;;;15.30;56.40;;;;;;5093980;27;20441;-60
2022/03/28 11:58:15;;;;;;;62.58;16.10;;;15.40;56.20;;;;;;5059032;27;20039;-60
2022/03/28 12:00:41;;;;;;;42.75;15.50;;;15.50;56.20;;;;;;5096396;27;20028;-60
2022/03/28 12:03:11;;;;;;;84.18;15.15;;;15.50;56.00;;;;;;5074623;28;20415;-61
2022/03/28 12:05:39;;;;;;;35.08;13.60;;;15.60;55.40;;;;;;5077154;28;20492;-61
2022/03/28 12:08:15;;;;;;;36.15;14.05;;;15.70;55.20;;;;;;5061990;27;20045;-60
2022/03/28 12:10:52;;;;;;;55.10;14.38;;;15.70;55.00;;;;;;5097748;27;21135;-61
2022/03/28 12:13:18;;;;;;;55.70;13.77;;;15.80;54.50;;;;;;5056280;27;21421;-60
2022/03/28 12:15:47;;;;;;;53.72;15.32;;;15.90;54.60;;;;;;5073236;28;20739;-60
2022/03/28 12:18:17;;;;;;;54.53;14.45;;;15.90;54.20;;;;;;5066421;27;20107;-60
2022/03/28 12:20:44;;;;;;;46.72;13.80;;;16.00;54.20;;;;;;5067729;28;20123;-60
2022/03/28 12:23:12;;;;;;;44.13;13.88;;;16.10;53.90;;;;;;5071422;28;20034;-60
2022/03/28 12:25:48;;;;;;;45.17;13.38;;;16.10;54.10;;;;;;5069168;27;20042;-61
2022/03/28 12:28:15;;;;;;;42.67;13.82;;;16.10;54.30;;;;;;5079087;28;20077;-60
2022/03/28 12:30:42;;;;;;;36.15;13.30;;;16.20;54.10;;;;;;5087305;28;20039;-61